Time;durP1;ratioP1;P1;durP2;ratioP2;P2;SDS_P1;SDS_P2;PMS_P1;PMS_P2;Temp;Humidity;BMP_temperature;BMP_pressure;BME280_temperature;BME280_humidity;BME280_pressure;Samples;Min_cycle;Max_cycle;Signal;HPM_P1;HPM_P2
2021/10/05 00:03:12;;;;;;;0.80;0.60;;;17.60;75.90;;;;;;10451396;28;20576;-65
2021/10/05 00:08:34;;;;;;;0.53;0.40;;;17.60;75.90;;;;;;10475258;28;20208;-63
2021/10/05 00:13:56;;;;;;;0.73;0.60;;;17.60;75.90;;;;;;10483489;28;20193;-63
2021/10/05 00:19:20;;;;;;;0.90;0.60;;;17.70;75.90;;;;;;10491743;28;20231;-63
2021/10/05 00:24:42;;;;;;;0.77;0.50;;;17.60;75.90;;;;;;10451328;28;20654;-63
2021/10/05 00:30:06;;;;;;;0.40;0.40;;;17.70;75.90;;;;;;10450160;28;20213;-64
2021/10/05 00:35:29;;;;;;;0.77;0.50;;;17.60;75.90;;;;;;10450184;28;20201;-63
2021/10/05 00:40:51;;;;;;;0.60;0.57;;;17.60;76.00;;;;;;10483482;28;20227;-63
2021/10/05 00:46:15;;;;;;;0.80;0.60;;;17.60;75.90;;;;;;10491841;28;20193;-64
2021/10/05 00:51:38;;;;;;;0.83;0.50;;;17.60;75.90;;;;;;10492188;28;20217;-66
2021/10/05 00:57:01;;;;;;;1.37;0.50;;;17.60;75.80;;;;;;10491638;28;20200;-63
2021/10/05 01:02:23;;;;;;;0.67;0.50;;;17.60;75.80;;;;;;10491568;28;20209;-65
2021/10/05 01:07:48;;;;;;;0.77;0.47;;;17.60;75.80;;;;;;10482747;28;20681;-65
2021/10/05 01:13:10;;;;;;;0.80;0.60;;;17.60;75.80;;;;;;10483427;28;20197;-64
2021/10/05 01:18:32;;;;;;;0.80;0.60;;;17.60;75.80;;;;;;10491258;28;20247;-65
2021/10/05 01:24:04;;;;;;;0.77;0.60;;;17.60;75.90;;;;;;10489754;28;20201;-63
2021/10/05 01:29:29;;;;;;;1.23;0.73;;;17.60;75.90;;;;;;10491104;28;20213;-63
2021/10/05 01:34:51;;;;;;;0.50;0.50;;;17.60;75.90;;;;;;10488448;28;20212;-63
2021/10/05 01:40:15;;;;;;;0.63;0.50;;;17.60;75.80;;;;;;10472158;28;20724;-64
2021/10/05 01:45:39;;;;;;;1.03;0.60;;;17.60;75.80;;;;;;10491027;28;20193;-64
2021/10/05 01:51:01;;;;;;;0.73;0.50;;;17.60;75.80;;;;;;10487472;28;20213;-64
2021/10/05 01:56:24;;;;;;;0.60;0.60;;;17.60;75.90;;;;;;10489177;28;20192;-66
2021/10/05 02:01:46;;;;;;;1.07;0.73;;;17.60;75.90;;;;;;10488361;28;20229;-63
2021/10/05 02:07:08;;;;;;;1.53;0.63;;;17.60;75.80;;;;;;10489384;28;20658;-65
2021/10/05 02:12:32;;;;;;;0.87;0.53;;;17.60;75.80;;;;;;10483776;28;20208;-65
2021/10/05 02:17:54;;;;;;;0.90;0.50;;;17.60;75.80;;;;;;10492445;28;20216;-63
2021/10/05 02:23:16;;;;;;;1.10;0.60;;;17.60;75.80;;;;;;10497021;28;20195;-65
2021/10/05 02:28:39;;;;;;;0.83;0.60;;;17.60;75.80;;;;;;10494493;28;20561;-66
2021/10/05 02:34:02;;;;;;;1.73;0.53;;;17.60;75.80;;;;;;10496768;28;20211;-65
2021/10/05 02:39:24;;;;;;;0.50;0.50;;;17.60;75.80;;;;;;10479463;28;20581;-65
2021/10/05 02:44:47;;;;;;;0.50;0.50;;;17.60;75.80;;;;;;10496603;28;20295;-65
2021/10/05 02:50:09;;;;;;;0.60;0.30;;;17.60;76.40;;;;;;10481771;28;20220;-65
2021/10/05 02:55:32;;;;;;;1.23;0.60;;;17.60;75.80;;;;;;10496906;28;20227;-65
2021/10/05 03:00:55;;;;;;;0.77;0.60;;;17.50;75.70;;;;;;10493829;28;20283;-66
2021/10/05 03:06:18;;;;;;;1.00;0.60;;;17.60;75.80;;;;;;10490182;28;20208;-64
2021/10/05 03:11:40;;;;;;;0.90;0.50;;;17.60;75.80;;;;;;10494953;28;20220;-65
2021/10/05 03:17:04;;;;;;;0.60;0.60;;;17.60;75.70;;;;;;10453302;28;20200;-63
2021/10/05 03:22:26;;;;;;;0.80;0.60;;;17.60;75.80;;;;;;10453299;28;20228;-66
2021/10/05 03:27:48;;;;;;;0.57;0.37;;;17.60;75.80;;;;;;10476778;28;20581;-66
2021/10/05 03:33:11;;;;;;;0.80;0.60;;;17.60;75.80;;;;;;10492820;28;20201;-66
2021/10/05 03:38:34;;;;;;;0.60;0.60;;;17.50;75.80;;;;;;10492224;28;20217;-66
2021/10/05 03:43:56;;;;;;;1.00;0.60;;;17.60;75.80;;;;;;10492462;28;20204;-63
2021/10/05 03:49:20;;;;;;;0.60;0.50;;;17.60;75.80;;;;;;10490804;28;20212;-65
2021/10/05 03:54:43;;;;;;;0.73;0.60;;;17.50;75.70;;;;;;10494431;28;20218;-66
2021/10/05 04:00:07;;;;;;;1.00;0.60;;;17.60;75.80;;;;;;10469489;28;20651;-66
2021/10/05 04:05:30;;;;;;;0.57;0.50;;;17.60;75.80;;;;;;10456128;28;20200;-63
2021/10/05 04:10:52;;;;;;;0.70;0.60;;;17.60;76.30;;;;;;10468808;28;20217;-65
2021/10/05 04:16:14;;;;;;;0.70;0.60;;;17.50;75.70;;;;;;10470507;28;20200;-65
2021/10/05 04:21:38;;;;;;;0.80;0.60;;;17.50;75.70;;;;;;10483535;28;20251;-65
2021/10/05 04:27:00;;;;;;;0.97;0.70;;;17.50;75.80;;;;;;10479220;28;20711;-63
2021/10/05 04:32:22;;;;;;;0.63;0.60;;;17.50;75.70;;;;;;10475968;28;20212;-63
2021/10/05 04:37:46;;;;;;;0.50;0.50;;;17.50;75.80;;;;;;10480048;28;20231;-64
2021/10/05 04:43:08;;;;;;;0.63;0.60;;;17.50;75.90;;;;;;10484683;28;20589;-64
2021/10/05 04:48:30;;;;;;;0.60;0.60;;;17.50;75.80;;;;;;10462985;28;20220;-65
2021/10/05 04:53:53;;;;;;;0.80;0.60;;;17.50;75.90;;;;;;10452621;28;20220;-66
2021/10/05 04:59:17;;;;;;;1.97;0.80;;;17.50;75.90;;;;;;10490608;28;20212;-65
2021/10/05 05:04:39;;;;;;;1.03;0.80;;;17.50;76.00;;;;;;10490826;28;20661;-68
2021/10/05 05:10:05;;;;;;;0.70;0.70;;;17.50;76.00;;;;;;10490991;28;20208;-66
2021/10/05 05:15:27;;;;;;;1.57;0.70;;;17.50;75.90;;;;;;10491570;28;20212;-65
2021/10/05 05:20:49;;;;;;;1.40;1.00;;;17.50;75.90;;;;;;10472139;28;20224;-65
2021/10/05 05:26:13;;;;;;;1.23;0.60;;;17.50;75.90;;;;;;10468292;28;20204;-65
2021/10/05 05:31:35;;;;;;;0.80;0.80;;;17.50;76.10;;;;;;10463082;28;20213;-65
2021/10/05 05:36:57;;;;;;;1.10;1.00;;;17.50;76.10;;;;;;10484007;28;20207;-65
2021/10/05 05:42:21;;;;;;;1.33;1.13;;;17.50;75.60;;;;;;10485889;28;20212;-66
2021/10/05 05:47:43;;;;;;;1.50;1.40;;;17.40;74.60;;;;;;10495708;28;20218;-68
2021/10/05 05:53:05;;;;;;;1.67;1.40;;;17.40;73.90;;;;;;10535248;28;20196;-66
2021/10/05 05:58:29;;;;;;;3.57;1.67;;;17.40;73.20;;;;;;10558014;22;20218;-67
2021/10/05 06:03:51;;;;;;;2.20;1.47;;;17.40;72.80;;;;;;10536026;28;20207;-66
2021/10/05 06:09:13;;;;;;;1.50;1.40;;;17.40;72.70;;;;;;10550134;28;20227;-67
2021/10/05 06:14:37;;;;;;;2.67;1.90;;;17.40;72.80;;;;;;10499827;28;20226;-66
2021/10/05 06:19:59;;;;;;;1.83;1.33;;;17.40;72.60;;;;;;10565024;28;20701;-66
2021/10/05 06:25:25;;;;;;;2.43;1.90;;;17.40;72.50;;;;;;10551201;28;20283;-66
2021/10/05 06:30:49;;;;;;;2.53;1.63;;;17.40;72.40;;;;;;10577692;28;20245;-66
2021/10/05 06:36:11;;;;;;;1.73;1.50;;;17.50;72.90;;;;;;10551008;28;20196;-66
2021/10/05 06:41:33;;;;;;;1.83;1.60;;;17.50;73.30;;;;;;10536871;28;20223;-65
2021/10/05 06:46:57;;;;;;;2.87;1.43;;;17.50;73.60;;;;;;10526649;28;20573;-66
2021/10/05 06:52:19;;;;;;;1.70;1.60;;;17.50;73.70;;;;;;10548430;28;20225;-65
2021/10/05 06:57:41;;;;;;;1.70;1.60;;;17.50;73.90;;;;;;10579804;28;20195;-66
2021/10/05 07:03:04;;;;;;;4.20;1.73;;;17.50;74.00;;;;;;10570000;28;20222;-66
2021/10/05 07:08:26;;;;;;;3.60;1.77;;;17.50;74.20;;;;;;10548896;28;20703;-66
2021/10/05 07:13:49;;;;;;;2.03;1.60;;;17.50;74.30;;;;;;10543692;28;20651;-65
2021/10/05 07:19:12;;;;;;;1.40;1.23;;;17.50;74.40;;;;;;10535960;28;21051;-66
2021/10/05 07:24:34;;;;;;;2.13;1.70;;;17.40;74.50;;;;;;10561863;28;20211;-65
2021/10/05 07:29:56;;;;;;;2.07;1.70;;;17.50;74.60;;;;;;10536372;28;20220;-66
2021/10/05 07:35:20;;;;;;;2.27;1.40;;;17.50;74.80;;;;;;10542317;28;20195;-66
2021/10/05 07:40:43;;;;;;;2.33;1.73;;;17.50;74.80;;;;;;10537380;28;20620;-66
2021/10/05 07:46:05;;;;;;;2.43;1.60;;;17.50;74.90;;;;;;10535138;28;20196;-66
2021/10/05 07:51:28;;;;;;;1.80;1.50;;;17.40;74.90;;;;;;10519084;28;20212;-65
2021/10/05 07:56:50;;;;;;;2.40;1.40;;;17.40;75.00;;;;;;10529082;28;20211;-66
2021/10/05 08:02:12;;;;;;;1.73;1.63;;;17.50;75.10;;;;;;10524899;28;20717;-65
2021/10/05 08:07:36;;;;;;;1.77;1.50;;;17.50;75.10;;;;;;10568577;28;20853;-65
2021/10/05 08:12:58;;;;;;;1.97;1.40;;;17.50;75.20;;;;;;10524251;28;20223;-65
2021/10/05 08:18:20;;;;;;;2.40;1.33;;;17.50;75.20;;;;;;10534979;28;20203;-66
2021/10/05 08:23:45;;;;;;;1.63;1.40;;;17.40;75.20;;;;;;10535461;28;20212;-66
2021/10/05 08:29:07;;;;;;;1.90;1.37;;;17.50;75.30;;;;;;10511832;28;20247;-66
2021/10/05 08:34:29;;;;;;;3.07;1.40;;;17.50;75.30;;;;;;10493462;28;20188;-67
2021/10/05 08:39:52;;;;;;;2.07;1.40;;;17.50;75.40;;;;;;10494452;28;20220;-67
2021/10/05 08:45:14;;;;;;;1.33;1.23;;;17.50;75.50;;;;;;10492579;28;20196;-67
2021/10/05 08:50:37;;;;;;;1.50;1.40;;;17.50;75.60;;;;;;10535985;28;20223;-67
2021/10/05 08:56:00;;;;;;;1.40;1.20;;;17.50;75.70;;;;;;10556900;28;20677;-67
2021/10/05 09:01:22;;;;;;;1.77;1.40;;;17.50;75.80;;;;;;10530116;28;20353;-68
2021/10/05 09:06:51;;;;;;;2.20;1.60;;;17.50;75.90;;;;;;10533791;28;20195;-68
2021/10/05 09:12:24;;;;;;;1.47;1.37;;;17.50;76.00;;;;;;10533601;28;20219;-68
2021/10/05 09:17:50;;;;;;;1.57;1.43;;;17.50;76.10;;;;;;10532742;28;20199;-68
2021/10/05 09:23:13;;;;;;;1.60;1.50;;;17.40;76.10;;;;;;10501608;28;20238;-68
2021/10/05 09:28:36;;;;;;;1.43;1.30;;;17.50;76.20;;;;;;10574336;28;20222;-68
2021/10/05 09:33:58;;;;;;;1.77;1.27;;;17.50;76.30;;;;;;10583927;28;20681;-68
2021/10/05 09:39:20;;;;;;;1.43;1.30;;;17.50;76.20;;;;;;10513771;28;20677;-69
2021/10/05 09:44:49;;;;;;;1.60;1.20;;;17.40;76.30;;;;;;10506172;28;20192;-69
2021/10/05 09:50:15;;;;;;;1.23;1.10;;;17.40;76.40;;;;;;10541116;28;20200;-68
2021/10/05 09:55:39;;;;;;;2.50;1.20;;;17.40;76.40;;;;;;10531433;28;20211;-69
2021/10/05 10:01:02;;;;;;;1.30;1.20;;;17.40;76.40;;;;;;10499356;28;20227;-69
2021/10/05 10:06:25;;;;;;;2.03;1.40;;;17.40;76.50;;;;;;10535493;28;20196;-69
2021/10/05 10:11:47;;;;;;;2.43;1.27;;;17.40;76.50;;;;;;10535686;28;20578;-69
2021/10/05 10:17:11;;;;;;;1.10;1.00;;;17.40;76.60;;;;;;10538986;28;20203;-68
2021/10/05 10:22:42;;;;;;;1.80;1.30;;;17.40;76.60;;;;;;10553701;28;20223;-66
2021/10/05 10:28:13;;;;;;;2.70;1.20;;;17.40;76.60;;;;;;10553671;28;20192;-65
2021/10/05 10:33:46;;;;;;;2.03;1.50;;;17.50;76.60;;;;;;10555902;28;20662;-66
2021/10/05 10:39:13;;;;;;;1.17;1.07;;;17.40;76.40;;;;;;10557066;28;20234;-66
2021/10/05 10:44:37;;;;;;;1.83;1.23;;;17.50;76.40;;;;;;10553294;28;20264;-66
2021/10/05 10:50:03;;;;;;;1.17;1.03;;;17.40;76.20;;;;;;10553636;28;20215;-67
2021/10/05 10:55:34;;;;;;;1.13;1.03;;;17.50;76.30;;;;;;10551272;28;20192;-66
2021/10/05 11:00:56;;;;;;;2.53;1.13;;;17.50;76.20;;;;;;10548961;28;20208;-67
2021/10/05 11:06:21;;;;;;;2.50;1.30;;;17.50;76.10;;;;;;10556260;28;20195;-67
2021/10/05 11:11:46;;;;;;;1.33;1.00;;;17.50;76.10;;;;;;10531043;28;20354;-67
2021/10/05 11:17:10;;;;;;;1.53;1.17;;;17.50;76.10;;;;;;10502019;28;20659;-66
2021/10/05 11:22:34;;;;;;;1.57;1.07;;;17.50;76.30;;;;;;10538974;28;20219;-66
2021/10/05 11:27:56;;;;;;;1.30;1.20;;;17.50;76.40;;;;;;10536806;28;20192;-66
2021/10/05 11:33:21;;;;;;;1.20;1.10;;;17.50;76.40;;;;;;10523458;28;20575;-66
2021/10/05 11:38:47;;;;;;;2.83;1.50;;;17.50;76.50;;;;;;10539239;28;20231;-65
2021/10/05 11:44:15;;;;;;;1.20;1.10;;;17.50;76.50;;;;;;10488549;28;20223;-66
2021/10/05 11:49:39;;;;;;;2.10;1.13;;;17.50;76.50;;;;;;10541886;28;20230;-66
2021/10/05 11:55:03;;;;;;;1.33;1.23;;;17.50;76.60;;;;;;10512563;28;20196;-66
2021/10/05 12:00:27;;;;;;;1.40;1.07;;;17.50;76.60;;;;;;10522801;28;20226;-66
2021/10/05 12:05:49;;;;;;;4.47;1.13;;;17.50;76.60;;;;;;10498126;28;20212;-66
2021/10/05 12:11:12;;;;;;;2.70;1.00;;;17.50;76.70;;;;;;10520454;28;20219;-66
2021/10/05 12:16:36;;;;;;;1.70;1.17;;;17.50;76.60;;;;;;10457251;22;20709;-67
2021/10/05 12:21:59;;;;;;;1.00;0.90;;;17.50;76.70;;;;;;10398061;28;20222;-67
2021/10/05 12:27:37;;;;;;;1.03;0.90;;;17.50;76.80;;;;;;10446422;28;20228;-67
2021/10/05 12:33:01;;;;;;;1.70;1.10;;;17.50;76.80;;;;;;10403937;28;20201;-67
2021/10/05 12:38:23;;;;;;;1.70;1.17;;;17.50;77.00;;;;;;10403824;28;20221;-67
2021/10/05 12:43:47;;;;;;;1.00;0.90;;;17.50;77.00;;;;;;10372751;28;20272;-67
2021/10/05 12:49:12;;;;;;;0.93;0.80;;;17.50;76.80;;;;;;10412474;28;20213;-67
2021/10/05 12:54:34;;;;;;;1.20;1.10;;;17.50;76.90;;;;;;10404774;28;20206;-68
2021/10/05 12:59:58;;;;;;;1.10;1.00;;;17.50;76.90;;;;;;10406813;28;20213;-69
2021/10/05 13:05:21;;;;;;;0.80;0.73;;;17.50;77.00;;;;;;10409194;28;20205;-67
2021/10/05 13:10:43;;;;;;;2.77;1.23;;;17.50;77.00;;;;;;10406234;28;20210;-64
2021/10/05 13:16:07;;;;;;;0.70;0.70;;;17.50;76.90;;;;;;10409746;28;20217;-64
2021/10/05 13:21:30;;;;;;;1.27;0.77;;;17.60;77.10;;;;;;10401642;28;20582;-67
2021/10/05 13:26:52;;;;;;;0.80;0.80;;;17.50;77.10;;;;;;10406871;28;20204;-67
2021/10/05 13:32:22;;;;;;;0.80;0.80;;;17.50;77.10;;;;;;10407094;28;20685;-68
2021/10/05 13:37:45;;;;;;;0.77;0.77;;;17.50;77.20;;;;;;10411732;28;20358;-65
2021/10/05 13:43:11;;;;;;;0.90;0.70;;;17.50;77.10;;;;;;10440711;28;20690;-65
2021/10/05 13:48:35;;;;;;;1.07;0.70;;;17.60;76.90;;;;;;10426839;28;20217;-66
2021/10/05 13:53:58;;;;;;;1.00;0.60;;;17.60;76.80;;;;;;10404454;28;20194;-66
2021/10/05 13:59:33;;;;;;;1.00;0.67;;;17.60;76.60;;;;;;10427994;28;20225;-65
2021/10/05 14:05:04;;;;;;;1.07;0.70;;;17.60;76.40;;;;;;10408380;28;20210;-65
2021/10/05 14:10:35;;;;;;;0.93;0.83;;;17.60;76.30;;;;;;10400628;28;20801;-69
2021/10/05 14:16:01;;;;;;;1.63;0.60;;;17.60;76.30;;;;;;10438264;28;20213;-66
2021/10/05 14:21:33;;;;;;;0.63;0.63;;;17.60;76.60;;;;;;10419069;28;20214;-67
2021/10/05 14:26:58;;;;;;;0.50;0.50;;;17.60;76.70;;;;;;10412833;28;20230;-66
2021/10/05 14:32:37;;;;;;;1.87;0.70;;;17.60;76.90;;;;;;10414077;28;20559;-66
2021/10/05 14:38:01;;;;;;;0.97;0.63;;;17.60;77.10;;;;;;10413865;28;20210;-66
2021/10/05 14:43:30;;;;;;;0.77;0.50;;;17.60;77.10;;;;;;10410706;28;20257;-66
2021/10/05 14:48:54;;;;;;;1.63;0.50;;;17.60;77.10;;;;;;10440512;28;20582;-66
2021/10/05 14:54:24;;;;;;;0.87;0.40;;;17.50;77.20;;;;;;10427123;28;20200;-67
2021/10/05 14:59:51;;;;;;;0.80;0.50;;;17.50;77.30;;;;;;10406369;28;20302;-66
2021/10/05 15:05:15;;;;;;;0.73;0.67;;;17.50;77.30;;;;;;10439950;28;20220;-65
2021/10/05 15:10:46;;;;;;;0.80;0.60;;;17.50;77.30;;;;;;10413182;28;20225;-66
2021/10/05 15:16:09;;;;;;;0.63;0.60;;;17.50;77.30;;;;;;10412476;28;20205;-67
2021/10/05 15:21:34;;;;;;;0.60;0.60;;;17.50;77.20;;;;;;10412795;28;20257;-69
2021/10/05 15:26:58;;;;;;;1.03;0.63;;;17.60;77.30;;;;;;10411809;28;20279;-69
2021/10/05 15:32:26;;;;;;;0.50;0.50;;;17.50;77.30;;;;;;10410952;28;20202;-66
2021/10/05 15:37:53;;;;;;;0.50;0.50;;;17.50;77.40;;;;;;10410291;28;20241;-65
2021/10/05 15:43:17;;;;;;;1.53;0.70;;;17.50;77.40;;;;;;10456047;22;20226;-66
2021/10/05 15:48:39;;;;;;;1.67;0.80;;;17.50;77.40;;;;;;10438622;28;20588;-66
2021/10/05 15:54:01;;;;;;;0.77;0.50;;;17.50;77.40;;;;;;10452866;28;20643;-66
2021/10/05 15:59:24;;;;;;;0.80;0.70;;;17.50;77.40;;;;;;10436234;28;20701;-66
2021/10/05 16:04:46;;;;;;;0.97;0.70;;;17.50;77.50;;;;;;10440077;28;20225;-66
2021/10/05 16:10:09;;;;;;;0.70;0.67;;;17.50;77.50;;;;;;10420845;28;20202;-66
2021/10/05 16:15:33;;;;;;;0.73;0.60;;;17.50;77.50;;;;;;10438938;28;20648;-66
2021/10/05 16:20:55;;;;;;;2.33;0.80;;;17.50;77.50;;;;;;10419466;28;20194;-66
2021/10/05 16:26:17;;;;;;;0.77;0.50;;;17.50;77.50;;;;;;10406483;28;20213;-66
2021/10/05 16:31:42;;;;;;;0.60;0.50;;;17.50;77.60;;;;;;10410810;28;20204;-66
2021/10/05 16:37:04;;;;;;;1.80;0.70;;;17.50;77.60;;;;;;10410322;28;20218;-66
2021/10/05 16:42:26;;;;;;;0.60;0.50;;;17.50;77.60;;;;;;10409362;28;20267;-66
2021/10/05 16:47:49;;;;;;;1.13;0.70;;;17.50;77.50;;;;;;10422945;28;20210;-66
2021/10/05 16:53:12;;;;;;;0.77;0.70;;;17.50;77.60;;;;;;10411510;28;20436;-65
2021/10/05 16:58:34;;;;;;;0.70;0.60;;;17.50;77.40;;;;;;10426096;28;20201;-65
2021/10/05 17:03:58;;;;;;;2.47;0.90;;;17.50;77.30;;;;;;10451246;28;20221;-66
2021/10/05 17:09:20;;;;;;;0.83;0.70;;;17.50;77.60;;;;;;10451455;28;20695;-66
2021/10/05 17:14:42;;;;;;;2.03;0.90;;;17.50;77.60;;;;;;10431650;28;20688;-67
2021/10/05 17:20:07;;;;;;;1.00;0.83;;;17.50;77.60;;;;;;10408761;28;20673;-66
2021/10/05 17:25:29;;;;;;;2.27;1.00;;;17.50;77.60;;;;;;10410345;28;20229;-66
2021/10/05 17:30:53;;;;;;;1.30;1.10;;;17.50;77.70;;;;;;10413253;28;20198;-66
2021/10/05 17:36:16;;;;;;;1.93;1.20;;;17.50;77.80;;;;;;10430239;28;20224;-66
2021/10/05 17:41:40;;;;;;;1.37;0.80;;;17.50;77.70;;;;;;10410584;28;20735;-66
2021/10/05 17:47:02;;;;;;;1.20;1.10;;;17.40;77.70;;;;;;10409119;28;20303;-65
2021/10/05 17:52:25;;;;;;;2.07;1.20;;;17.40;77.70;;;;;;10417313;28;20665;-66
2021/10/05 17:57:48;;;;;;;2.40;1.43;;;17.40;77.70;;;;;;10438909;28;20221;-66
2021/10/05 18:03:10;;;;;;;2.23;1.40;;;17.40;77.70;;;;;;10435111;28;20213;-67
2021/10/05 18:08:34;;;;;;;1.70;1.60;;;17.40;77.80;;;;;;10458139;28;20208;-68
2021/10/05 18:13:56;;;;;;;4.37;1.70;;;17.40;77.80;;;;;;10463058;22;20225;-66
2021/10/05 18:19:19;;;;;;;2.10;1.60;;;17.40;77.90;;;;;;10476567;28;20573;-66
2021/10/05 18:24:43;;;;;;;1.90;1.77;;;17.40;77.90;;;;;;10449753;28;20222;-65
2021/10/05 18:30:06;;;;;;;4.33;1.80;;;17.40;77.90;;;;;;10415597;28;20221;-65
2021/10/05 18:35:28;;;;;;;1.70;1.60;;;17.40;77.70;;;;;;10414091;28;20710;-65
2021/10/05 18:40:53;;;;;;;2.43;1.87;;;17.40;77.60;;;;;;10412885;28;20217;-63
2021/10/05 18:46:15;;;;;;;2.13;1.67;;;17.50;77.60;;;;;;10424718;28;20542;-64
2021/10/05 18:51:37;;;;;;;3.77;1.90;;;17.40;77.60;;;;;;10454020;28;20213;-63
2021/10/05 18:57:01;;;;;;;2.87;1.50;;;17.50;77.60;;;;;;10430260;28;20201;-65
2021/10/05 19:02:23;;;;;;;1.60;1.50;;;17.50;77.50;;;;;;10448905;28;20237;-65
2021/10/05 19:07:45;;;;;;;2.05;1.80;;;17.50;77.40;;;;;;10439301;28;20431;-63
2021/10/05 19:13:08;;;;;;;1.93;1.43;;;18.00;75.30;;;;;;10426864;28;20212;-65
2021/10/05 19:18:31;;;;;;;3.80;1.83;;;17.80;76.40;;;;;;10426902;28;20233;-65
2021/10/05 19:23:53;;;;;;;2.33;1.43;;;17.60;77.00;;;;;;10433738;28;20684;-63
2021/10/05 19:29:17;;;;;;;2.10;1.53;;;17.60;77.30;;;;;;10431226;28;20682;-63
2021/10/05 19:34:39;;;;;;;1.50;1.40;;;17.50;77.40;;;;;;10429218;28;20197;-64
2021/10/05 19:40:01;;;;;;;2.23;1.50;;;17.50;77.60;;;;;;10428686;28;20214;-64
2021/10/05 19:45:25;;;;;;;1.90;1.43;;;17.50;77.80;;;;;;10432115;28;20574;-64
2021/10/05 19:50:47;;;;;;;2.53;1.90;;;17.50;77.80;;;;;;10431306;28;20245;-64
2021/10/05 19:56:09;;;;;;;1.63;1.47;;;17.50;77.80;;;;;;10432942;28;20193;-63
2021/10/05 20:01:33;;;;;;;1.33;1.23;;;17.50;77.70;;;;;;10432036;28;20221;-62
2021/10/05 20:06:55;;;;;;;1.70;1.60;;;17.50;77.90;;;;;;10429931;28;20202;-64
2021/10/05 20:12:17;;;;;;;1.40;1.13;;;17.50;77.90;;;;;;10425337;28;20558;-64
2021/10/05 20:17:41;;;;;;;1.50;1.30;;;17.50;77.80;;;;;;10429213;28;20217;-64
2021/10/05 20:23:03;;;;;;;1.47;1.30;;;17.50;77.90;;;;;;10428349;28;20214;-62
2021/10/05 20:28:26;;;;;;;1.47;1.30;;;17.40;77.80;;;;;;10427256;28;20212;-64
2021/10/05 20:33:51;;;;;;;2.00;1.43;;;17.40;77.80;;;;;;10410879;28;20251;-64
2021/10/05 20:39:13;;;;;;;1.57;1.23;;;17.50;77.90;;;;;;10435822;28;20590;-64
2021/10/05 20:44:35;;;;;;;1.30;1.20;;;17.50;77.90;;;;;;10435039;28;20217;-65
2021/10/05 20:49:59;;;;;;;1.57;1.40;;;17.40;77.90;;;;;;10411827;28;20210;-64
2021/10/05 20:55:21;;;;;;;1.73;1.33;;;17.40;77.90;;;;;;10438848;28;20193;-63
2021/10/05 21:00:43;;;;;;;1.37;1.27;;;17.40;77.90;;;;;;10449910;28;20582;-62
2021/10/05 21:06:07;;;;;;;1.47;1.27;;;17.40;77.90;;;;;;10451171;28;20216;-65
2021/10/05 21:11:29;;;;;;;1.00;0.87;;;17.40;78.00;;;;;;10447175;28;20217;-65
2021/10/05 21:16:51;;;;;;;1.63;1.50;;;17.40;77.90;;;;;;10447277;28;20573;-65
2021/10/05 21:22:14;;;;;;;1.33;1.23;;;17.40;78.00;;;;;;10430290;28;20213;-65
2021/10/05 21:27:37;;;;;;;1.30;1.10;;;17.40;78.10;;;;;;10450714;28;20223;-64
2021/10/05 21:32:59;;;;;;;1.13;1.03;;;17.40;78.10;;;;;;10459164;28;20196;-62
2021/10/05 21:38:23;;;;;;;1.37;1.27;;;17.40;78.10;;;;;;10430746;28;20217;-64
2021/10/05 21:43:45;;;;;;;1.40;1.27;;;17.40;78.10;;;;;;10421023;28;20220;-64
2021/10/05 21:49:07;;;;;;;1.40;1.20;;;17.40;78.10;;;;;;10445773;28;20657;-61
2021/10/05 21:54:30;;;;;;;1.20;1.10;;;17.40;78.00;;;;;;10423881;28;20190;-63
2021/10/05 21:59:52;;;;;;;1.20;1.10;;;17.40;78.00;;;;;;10455536;28;20210;-64
2021/10/05 22:05:14;;;;;;;1.10;1.00;;;17.40;78.10;;;;;;10452382;28;20224;-64
2021/10/05 22:10:38;;;;;;;1.30;1.20;;;17.40;78.00;;;;;;10428310;28;20228;-63
2021/10/05 22:16:00;;;;;;;1.57;1.40;;;17.40;78.10;;;;;;10441089;28;20208;-62
2021/10/05 22:21:22;;;;;;;1.87;1.20;;;17.40;78.00;;;;;;10422229;28;20582;-62
2021/10/05 22:26:46;;;;;;;1.70;1.30;;;17.40;78.00;;;;;;10429200;28;20215;-62
2021/10/05 22:32:09;;;;;;;1.33;1.10;;;17.40;78.10;;;;;;10461932;28;20201;-64
2021/10/05 22:37:35;;;;;;;1.50;1.20;;;17.40;78.10;;;;;;10415530;28;20575;-65
2021/10/05 22:42:58;;;;;;;2.37;1.30;;;17.40;78.10;;;;;;10420711;28;20209;-63
2021/10/05 22:48:21;;;;;;;2.07;1.17;;;17.40;78.20;;;;;;10442484;28;20304;-64
2021/10/05 22:53:43;;;;;;;1.20;1.10;;;17.40;78.10;;;;;;10425978;28;20212;-63
2021/10/05 22:59:06;;;;;;;1.20;1.10;;;17.40;78.20;;;;;;10438420;28;20218;-62
2021/10/05 23:04:28;;;;;;;1.20;1.10;;;17.40;78.20;;;;;;10424552;28;20228;-64
2021/10/05 23:09:51;;;;;;;1.03;1.03;;;17.40;78.20;;;;;;10413808;28;20217;-64
2021/10/05 23:15:14;;;;;;;1.10;1.00;;;17.40;78.20;;;;;;10413841;28;20201;-64
2021/10/05 23:20:36;;;;;;;1.20;1.10;;;17.40;78.10;;;;;;10413787;28;20217;-63
2021/10/05 23:25:58;;;;;;;1.20;1.10;;;17.40;78.20;;;;;;10414323;28;20586;-61
2021/10/05 23:31:22;;;;;;;1.30;1.20;;;17.40;78.20;;;;;;10437370;28;20213;-64
2021/10/05 23:36:44;;;;;;;1.37;1.23;;;17.40;78.30;;;;;;10454109;28;20547;-63
2021/10/05 23:42:06;;;;;;;1.47;1.13;;;17.40;78.20;;;;;;10451570;28;20197;-64
2021/10/05 23:47:30;;;;;;;3.70;1.20;;;17.40;78.30;;;;;;10424816;28;20220;-62
2021/10/05 23:52:52;;;;;;;1.27;1.10;;;17.40;78.30;;;;;;10435621;28;20764;-64
2021/10/05 23:58:14;;;;;;;1.20;1.10;;;17.40;78.30;;;;;;10448845;28;20217;-64
